createdAt,value
2022-07-29T00:00:24.479Z,23.95
2022-07-29T00:05:26.578Z,24.95
2022-07-29T00:10:28.724Z,26.32
2022-07-29T00:15:30.721Z,24.97
2022-07-29T00:20:32.847Z,25.21
2022-07-29T00:25:34.925Z,26.61
2022-07-29T00:30:36.903Z,25.23
2022-07-29T00:35:44.812Z,26.21
2022-07-29T00:40:47.492Z,26.21
2022-07-29T00:45:49.465Z,26.96
2022-07-29T00:50:52.439Z,26.03
2022-07-29T00:55:57.644Z,26.32
2022-07-29T01:00:59.935Z,28.00
2022-07-29T01:06:01.957Z,28.72
2022-07-29T01:11:04.312Z,27.28
2022-07-29T01:16:14.857Z,26.43
2022-07-29T01:21:35.269Z,28.24
2022-07-29T01:26:54.222Z,28.05
2022-07-29T01:32:04.213Z,26.66
2022-07-29T01:37:27.687Z,28.48
2022-07-29T01:42:37.280Z,29.73
2022-07-29T01:48:13.449Z,27.34
2022-07-29T01:53:19.439Z,29.28
2022-07-29T01:58:22.052Z,30.42
2022-07-29T02:03:24.487Z,28.30
2022-07-29T02:08:27.336Z,27.93
2022-07-29T02:13:30.155Z,27.82
2022-07-29T02:18:33.258Z,28.07
2022-07-29T02:23:45.207Z,27.49
2022-07-29T02:28:55.647Z,28.78
2022-07-29T02:33:58.540Z,28.55
2022-07-29T02:39:01.969Z,29.89
2022-07-29T02:44:12.477Z,29.09
2022-07-29T02:49:18.393Z,30.10
2022-07-29T02:54:42.522Z,29.34
2022-07-29T02:59:46.868Z,30.08
2022-07-29T03:04:50.421Z,29.42
2022-07-29T03:09:53.582Z,30.82
2022-07-29T03:14:56.998Z,31.32
2022-07-29T03:19:59.918Z,30.77
2022-07-29T03:25:09.925Z,30.37
2022-07-29T03:30:18.434Z,31.72
2022-07-29T03:35:24.978Z,30.61
2022-07-29T03:40:37.102Z,29.72
2022-07-29T03:45:40.536Z,31.45
2022-07-29T03:50:42.954Z,30.47
2022-07-29T03:55:48.599Z,32.08
2022-07-29T04:00:51.356Z,30.75
2022-07-29T04:06:01.580Z,31.19
2022-07-29T04:11:07.566Z,32.17
2022-07-29T04:16:10.300Z,32.39
2022-07-29T04:21:12.588Z,30.33
2022-07-29T04:26:15.332Z,32.59
2022-07-29T04:31:19.351Z,33.62
2022-07-29T04:36:28.373Z,32.58
2022-07-29T04:41:33.148Z,33.11
2022-07-29T04:46:36.675Z,33.70
2022-07-29T04:51:39.083Z,32.26
2022-07-29T04:56:41.065Z,33.32
2022-07-29T05:01:43.174Z,33.65
2022-07-29T05:06:45.305Z,33.85
2022-07-29T05:11:47.446Z,33.92
2022-07-29T05:16:52.177Z,34.61
2022-07-29T05:21:54.381Z,33.36
2022-07-29T05:27:02.442Z,33.10
2022-07-29T05:32:05.094Z,33.82
2022-07-29T05:37:07.120Z,33.86
2022-07-29T05:42:10.878Z,32.32
2022-07-29T05:47:12.801Z,33.44
2022-07-29T05:52:15.145Z,34.38
2022-07-29T05:57:22.085Z,32.20
2022-07-29T06:02:24.144Z,33.95
2022-07-29T06:07:26.091Z,35.98
2022-07-29T06:12:28.054Z,37.75
2022-07-29T06:17:30.043Z,36.69
2022-07-29T06:22:31.981Z,37.57
2022-07-29T06:27:33.887Z,37.28
2022-07-29T06:32:41.356Z,38.24
2022-07-29T06:37:45.105Z,38.68
2022-07-29T06:42:48.602Z,39.04
2022-07-29T06:47:50.989Z,38.30
2022-07-29T06:52:52.957Z,38.60
2022-07-29T06:57:54.835Z,38.11
2022-07-29T07:02:56.931Z,37.25
2022-07-29T07:07:59.077Z,38.65
2022-07-29T07:13:01.811Z,38.31
2022-07-29T07:18:04.784Z,38.56
2022-07-29T07:23:06.863Z,36.37
2022-07-29T07:28:08.974Z,36.25
2022-07-29T07:33:10.944Z,35.40
2022-07-29T07:38:13.113Z,35.82
2022-07-29T07:43:15.026Z,36.21
2022-07-29T07:48:16.998Z,35.28
2022-07-29T07:53:18.904Z,36.17
2022-07-29T07:58:20.906Z,35.81
2022-07-29T08:03:22.895Z,37.27
2022-07-29T08:08:24.960Z,36.76
2022-07-29T08:13:31.333Z,35.22
2022-07-29T08:18:33.569Z,35.28
2022-07-29T08:23:50.575Z,34.38
2022-07-29T08:28:55.098Z,35.25
2022-07-29T08:33:57.518Z,34.19
2022-07-29T08:39:01.309Z,33.05
2022-07-29T08:44:03.229Z,32.58
2022-07-29T08:49:05.235Z,30.93
2022-07-29T08:54:07.886Z,29.29
2022-07-29T08:59:10.723Z,28.80
2022-07-29T09:04:15.484Z,28.13
2022-07-29T09:09:17.968Z,26.11
2022-07-29T09:14:20.012Z,26.69
2022-07-29T09:19:33.101Z,25.07
2022-07-29T09:24:41.850Z,24.79
2022-07-29T09:29:43.832Z,23.80
2022-07-29T09:34:45.723Z,23.40
2022-07-29T09:39:47.767Z,24.54
2022-07-29T09:44:51.486Z,23.53
2022-07-29T09:49:54.731Z,22.86
2022-07-29T09:55:10.018Z,23.92
2022-07-29T10:00:18.956Z,20.89
2022-07-29T10:05:26.135Z,22.28
2022-07-29T10:10:28.887Z,19.50
2022-07-29T10:15:33.338Z,21.15
2022-07-29T10:20:35.978Z,18.80
2022-07-29T10:25:38.080Z,19.76
2022-07-29T10:30:41.143Z,19.79
2022-07-29T10:35:55.013Z,16.47
2022-07-29T10:41:24.327Z,18.26
2022-07-29T10:46:27.549Z,18.08
2022-07-29T10:51:52.149Z,16.19
2022-07-29T10:56:54.154Z,15.67
2022-07-29T11:02:10.890Z,14.85
2022-07-29T11:07:19.529Z,14.81
2022-07-29T11:12:39.829Z,15.79
2022-07-29T11:18:01.432Z,14.07
2022-07-29T11:23:19.562Z,14.17
2022-07-29T11:28:23.218Z,14.31
2022-07-29T11:33:54.100Z,13.56
2022-07-29T11:39:36.981Z,14.48
2022-07-29T11:45:42.082Z,14.53
2022-07-29T11:50:44.712Z,13.78
2022-07-29T11:55:51.398Z,14.02
2022-07-29T12:00:55.531Z,14.51
2022-07-29T12:05:58.069Z,15.14
2022-07-29T12:11:00.972Z,14.20
2022-07-29T12:16:04.358Z,14.65
2022-07-29T12:21:06.370Z,14.66
2022-07-29T12:26:11.053Z,15.47
2022-07-29T12:31:43.096Z,15.59
2022-07-29T12:36:45.721Z,15.60
2022-07-29T12:41:47.720Z,15.45
2022-07-29T12:47:02.514Z,15.64
2022-07-29T12:52:25.152Z,15.66
2022-07-29T12:57:28.372Z,15.50
2022-07-29T13:02:30.390Z,15.51
2022-07-29T13:07:55.415Z,15.15
2022-07-29T13:13:07.390Z,16.16
2022-07-29T13:18:29.343Z,17.47
2022-07-29T13:23:31.316Z,14.75
2022-07-29T13:28:41.061Z,15.06
2022-07-29T13:33:46.306Z,16.57
2022-07-29T13:38:48.053Z,14.03
2022-07-29T13:43:50.184Z,15.00
2022-07-29T13:48:52.564Z,14.56
2022-07-29T13:53:54.528Z,14.26
2022-07-29T13:58:56.695Z,13.92
2022-07-29T14:04:00.294Z,14.64
2022-07-29T14:09:02.582Z,14.48
2022-07-29T14:14:04.580Z,15.04
2022-07-29T14:19:06.387Z,14.22
2022-07-29T14:24:16.203Z,14.29
2022-07-29T14:29:22.809Z,14.15
2022-07-29T14:34:24.606Z,13.69
2022-07-29T14:39:26.547Z,12.51
2022-07-29T14:44:34.109Z,12.15
2022-07-29T14:49:36.234Z,13.61
2022-07-29T14:54:38.190Z,13.03
2022-07-29T14:59:40.401Z,13.49
2022-07-29T15:04:42.352Z,12.99
2022-07-29T15:09:49.936Z,13.64
2022-07-29T15:14:52.172Z,13.98
2022-07-29T15:19:54.042Z,13.84
2022-07-29T15:24:55.896Z,13.42
2022-07-29T15:29:58.167Z,13.23
2022-07-29T15:35:00.161Z,12.32
2022-07-29T15:40:02.080Z,13.52
2022-07-29T15:45:05.284Z,13.63
2022-07-29T15:50:12.977Z,13.35
2022-07-29T15:55:16.443Z,13.57
2022-07-29T16:00:18.562Z,12.94
2022-07-29T16:05:20.591Z,12.63
2022-07-29T16:10:22.299Z,12.06
2022-07-29T16:15:24.378Z,11.87
2022-07-29T16:20:26.341Z,12.26
2022-07-29T16:25:50.268Z,12.41
2022-07-29T16:30:51.441Z,12.23
2022-07-29T16:35:53.293Z,12.06
2022-07-29T16:40:55.196Z,12.19
2022-07-29T16:45:57.179Z,12.42
2022-07-29T16:50:59.156Z,11.58
2022-07-29T16:56:01.496Z,13.32
2022-07-29T17:01:04.057Z,11.62
2022-07-29T17:06:06.047Z,13.41
2022-07-29T17:11:07.969Z,12.58
2022-07-29T17:16:09.960Z,12.58
2022-07-29T17:21:11.726Z,12.41
2022-07-29T17:26:13.767Z,12.28
2022-07-29T17:31:15.625Z,14.58
2022-07-29T17:36:24.481Z,14.03
2022-07-29T17:41:26.843Z,14.43
2022-07-29T17:46:28.959Z,14.82
2022-07-29T17:51:30.934Z,13.71
2022-07-29T17:56:32.939Z,13.75
2022-07-29T18:01:34.814Z,14.05
2022-07-29T18:06:36.934Z,14.20
2022-07-29T18:11:38.649Z,14.27
2022-07-29T18:16:41.315Z,15.71
2022-07-29T18:21:51.848Z,15.59
2022-07-29T18:26:57.198Z,15.26
2022-07-29T18:32:00.036Z,13.96
2022-07-29T18:37:02.147Z,14.27
2022-07-29T18:42:04.050Z,16.33
2022-07-29T18:47:06.102Z,15.92
2022-07-29T18:52:08.480Z,15.05
2022-07-29T18:57:55.276Z,15.26
2022-07-29T19:02:32.527Z,16.59
2022-07-29T19:07:34.633Z,20.01
2022-07-29T19:12:36.623Z,17.69
2022-07-29T19:17:39.037Z,19.74
2022-07-29T19:22:41.294Z,20.16
2022-07-29T19:27:42.980Z,19.81
2022-07-29T19:32:44.799Z,20.04
2022-07-29T19:37:47.016Z,18.92
2022-07-29T19:42:51.695Z,20.81
2022-07-29T19:47:59.063Z,19.00
2022-07-29T19:53:02.830Z,20.92
2022-07-29T19:58:06.131Z,20.72
2022-07-29T20:03:10.799Z,20.61
2022-07-29T20:08:12.823Z,19.48
2022-07-29T20:13:14.985Z,19.94
2022-07-29T20:18:16.807Z,20.38
2022-07-29T20:23:19.436Z,20.53
2022-07-29T20:28:21.481Z,20.24
2022-07-29T20:33:23.442Z,20.28
2022-07-29T20:38:25.307Z,18.39
2022-07-29T20:43:27.855Z,19.96
2022-07-29T20:48:29.750Z,20.20
2022-07-29T20:53:34.865Z,20.20
2022-07-29T20:58:38.444Z,20.05
2022-07-29T21:03:40.646Z,20.10
2022-07-29T21:08:42.801Z,21.14
2022-07-29T21:13:45.734Z,21.93
2022-07-29T21:18:47.702Z,22.82
2022-07-29T21:23:49.697Z,23.88
2022-07-29T21:28:51.655Z,21.89
2022-07-29T21:33:54.254Z,20.65
2022-07-29T21:38:56.817Z,20.37
2022-07-29T21:43:59.540Z,21.58
2022-07-29T21:49:01.592Z,22.20
2022-07-29T21:54:04.233Z,23.18
2022-07-29T21:59:09.801Z,25.36
2022-07-29T22:04:14.686Z,27.58
2022-07-29T22:09:16.727Z,29.32
2022-07-29T22:14:18.829Z,30.34
2022-07-29T22:19:20.847Z,31.23
2022-07-29T22:24:22.791Z,31.45
2022-07-29T22:29:26.907Z,31.84
2022-07-29T22:34:31.773Z,31.99
2022-07-29T22:39:40.308Z,32.65
2022-07-29T22:44:42.390Z,33.11
2022-07-29T22:49:44.368Z,33.32
2022-07-29T22:54:46.359Z,33.53
2022-07-29T22:59:48.297Z,34.26
2022-07-29T23:04:50.275Z,34.69
2022-07-29T23:09:52.153Z,34.83
2022-07-29T23:14:54.024Z,35.03
2022-07-29T23:19:55.900Z,35.58
2022-07-29T23:24:58.169Z,35.46
2022-07-29T23:30:00.125Z,35.73
2022-07-29T23:35:02.205Z,36.24
2022-07-29T23:40:05.594Z,36.46
2022-07-29T23:45:08.318Z,35.99
2022-07-29T23:50:14.055Z,36.73
2022-07-29T23:55:36.579Z,36.94
